Time;durP1;ratioP1;P1;durP2;ratioP2;P2;SDS_P1;SDS_P2;PMS_P1;PMS_P2;Temp;Humidity;BMP_temperature;BMP_pressure;BME280_temperature;BME280_humidity;BME280_pressure;Samples;Min_cycle;Max_cycle;Signal;HPM_P1;HPM_P2
2021/01/16 00:00:59;;;;;;;8.82;1.60;;;27.90;14.10;;;;;;5108406;28;20127;-63
2021/01/16 00:03:26;;;;;;;9.70;2.13;;;27.80;14.30;;;;;;5107877;28;20100;-65
2021/01/16 00:05:54;;;;;;;5.95;2.20;;;27.80;14.10;;;;;;5104689;28;20101;-64
2021/01/16 00:08:23;;;;;;;5.78;1.60;;;27.70;14.30;;;;;;5109058;28;20408;-64
2021/01/16 00:10:53;;;;;;;7.30;1.73;;;27.60;14.30;;;;;;5107912;28;20079;-64
2021/01/16 00:13:28;;;;;;;11.32;2.35;;;27.50;14.00;;;;;;5107123;28;20082;-64
2021/01/16 00:15:55;;;;;;;8.73;2.60;;;27.30;14.30;;;;;;5111917;28;20462;-63
2021/01/16 00:18:23;;;;;;;8.85;2.63;;;27.20;14.30;;;;;;5112684;28;20089;-64
2021/01/16 00:20:55;;;;;;;7.85;2.67;;;27.10;15.30;;;;;;5113058;28;20159;-64
2021/01/16 00:23:23;;;;;;;9.57;2.90;;;27.10;14.90;;;;;;5110403;28;20619;-64
2021/01/16 00:25:50;;;;;;;13.75;3.13;;;27.00;15.30;;;;;;5110166;28;20567;-64
2021/01/16 00:28:31;;;;;;;11.45;2.95;;;26.90;14.90;;;;;;5110751;28;20078;-64
2021/01/16 00:30:59;;;;;;;7.28;2.30;;;26.80;15.30;;;;;;5110186;28;20078;-64
2021/01/16 00:33:30;;;;;;;12.13;2.75;;;26.70;15.00;;;;;;5111722;28;20114;-69
2021/01/16 00:35:58;;;;;;;4.32;1.70;;;26.60;15.10;;;;;;5109541;28;20133;-64
2021/01/16 00:38:26;;;;;;;4.38;1.48;;;26.50;14.80;;;;;;5110534;28;20088;-64
2021/01/16 00:40:53;;;;;;;7.95;2.00;;;26.40;14.90;;;;;;5109711;28;20083;-64
2021/01/16 00:43:20;;;;;;;7.68;1.95;;;26.30;15.20;;;;;;5093798;28;20073;-64
2021/01/16 00:45:48;;;;;;;9.40;2.80;;;26.10;15.40;;;;;;5112949;28;20091;-64
2021/01/16 00:48:20;;;;;;;18.13;3.15;;;25.90;16.40;;;;;;5110140;28;20084;-64
2021/01/16 00:50:48;;;;;;;16.10;3.50;;;25.80;15.90;;;;;;5111789;28;20066;-63
2021/01/16 00:53:14;;;;;;;27.58;4.22;;;25.50;16.40;;;;;;5111623;28;20073;-63
2021/01/16 00:55:41;;;;;;;16.40;3.35;;;25.40;17.10;;;;;;5108565;28;20075;-63
2021/01/16 00:58:12;;;;;;;18.23;3.13;;;25.10;17.50;;;;;;5111849;28;20075;-64
2021/01/16 01:00:41;;;;;;;22.17;4.03;;;25.00;17.10;;;;;;5110246;28;20066;-64
2021/01/16 01:03:08;;;;;;;128.82;7.88;;;24.80;17.30;;;;;;5110320;28;20073;-63
2021/01/16 01:05:38;;;;;;;22.60;4.40;;;24.50;18.20;;;;;;5110308;28;20132;-63
2021/01/16 01:08:04;;;;;;;141.80;10.30;;;24.30;18.00;;;;;;5108916;28;20089;-65
2021/01/16 01:10:50;;;;;;;52.95;6.25;;;24.20;18.80;;;;;;5109599;28;20465;-64
2021/01/16 01:13:16;;;;;;;45.28;5.53;;;23.90;18.90;;;;;;5109556;28;20070;-63
2021/01/16 01:15:43;;;;;;;35.10;5.50;;;23.70;19.00;;;;;;5110882;28;20063;-64
2021/01/16 01:18:10;;;;;;;25.70;4.85;;;23.60;19.40;;;;;;5110626;28;20203;-64
2021/01/16 01:20:36;;;;;;;32.28;5.25;;;23.40;19.80;;;;;;5110358;28;20090;-66
2021/01/16 01:23:03;;;;;;;36.47;4.85;;;23.20;19.90;;;;;;5110057;28;20477;-64
2021/01/16 01:25:30;;;;;;;26.20;5.20;;;23.00;20.40;;;;;;5108938;28;20178;-64
2021/01/16 01:27:59;;;;;;;23.08;5.10;;;22.80;20.90;;;;;;5087820;28;20128;-64
2021/01/16 01:30:28;;;;;;;23.20;5.00;;;22.70;21.20;;;;;;5109754;28;20064;-65
2021/01/16 01:32:56;;;;;;;25.63;4.70;;;22.50;21.10;;;;;;5087550;28;20079;-64
2021/01/16 01:35:24;;;;;;;37.35;6.28;;;22.30;21.30;;;;;;5109126;28;20185;-64
2021/01/16 01:37:53;;;;;;;48.00;5.60;;;22.20;21.50;;;;;;5110414;28;20124;-64
2021/01/16 01:40:23;;;;;;;37.67;5.82;;;22.00;21.50;;;;;;5109933;28;20080;-65
2021/01/16 01:42:52;;;;;;;37.45;6.72;;;21.90;21.60;;;;;;5109037;28;20199;-65
2021/01/16 01:45:19;;;;;;;30.95;6.57;;;21.70;21.60;;;;;;5110458;28;20099;-64
2021/01/16 01:47:47;;;;;;;33.85;6.85;;;21.60;22.20;;;;;;5107353;28;20103;-64
2021/01/16 01:50:16;;;;;;;44.55;6.90;;;21.50;22.60;;;;;;5108911;28;20079;-65
2021/01/16 01:52:44;;;;;;;43.25;7.32;;;21.40;22.70;;;;;;5109314;28;20150;-64
2021/01/16 01:55:12;;;;;;;43.50;7.78;;;21.30;23.30;;;;;;5110201;28;20558;-64
2021/01/16 01:57:45;;;;;;;36.47;7.50;;;21.20;23.30;;;;;;5110857;28;20124;-66
2021/01/16 02:00:14;;;;;;;59.33;9.10;;;21.00;23.60;;;;;;5110361;28;20075;-64
2021/01/16 02:02:43;;;;;;;58.38;8.93;;;20.90;23.90;;;;;;5110480;28;20082;-65
2021/01/16 02:05:11;;;;;;;86.32;10.00;;;20.90;24.00;;;;;;5108774;28;20119;-66
2021/01/16 02:07:38;;;;;;;56.10;9.18;;;20.80;24.00;;;;;;5089376;28;20117;-66
2021/01/16 02:10:11;;;;;;;62.03;9.70;;;20.70;24.20;;;;;;5106366;28;20071;-66
2021/01/16 02:12:42;;;;;;;45.10;8.82;;;20.50;24.20;;;;;;5109984;28;20067;-65
2021/01/16 02:15:20;;;;;;;68.05;8.82;;;20.40;24.70;;;;;;5085250;28;20067;-64
2021/01/16 02:17:54;;;;;;;59.40;9.38;;;20.40;24.40;;;;;;5108497;28;20473;-63
2021/01/16 02:20:28;;;;;;;59.95;9.65;;;20.30;24.70;;;;;;5110338;28;20157;-63
2021/01/16 02:23:12;;;;;;;51.80;9.35;;;20.10;24.70;;;;;;5108923;28;20070;-63
2021/01/16 02:25:42;;;;;;;46.92;10.43;;;20.10;25.00;;;;;;5109838;28;20510;-64
2021/01/16 02:28:09;;;;;;;63.75;10.95;;;20.00;25.10;;;;;;5109426;28;20095;-64
2021/01/16 02:30:41;;;;;;;53.15;10.65;;;19.90;25.10;;;;;;5086195;28;20074;-64
2021/01/16 02:33:11;;;;;;;57.28;12.55;;;19.80;25.10;;;;;;5109508;28;20071;-62
2021/01/16 02:35:49;;;;;;;51.17;11.93;;;19.70;25.20;;;;;;5104577;27;20575;-64
2021/01/16 02:38:27;;;;;;;58.90;13.98;;;19.70;25.70;;;;;;5100792;28;20077;-64
2021/01/16 02:41:01;;;;;;;58.55;13.20;;;19.70;25.90;;;;;;5110371;28;20086;-64
2021/01/16 02:43:44;;;;;;;77.88;14.13;;;19.60;26.00;;;;;;5108501;27;20075;-64
2021/01/16 02:46:49;;;;;;;81.75;15.93;;;19.40;26.00;;;;;;5109632;28;20166;-64
2021/01/16 02:49:41;;;;;;;55.85;16.95;;;19.40;26.50;;;;;;5039103;28;20085;-67
2021/01/16 02:52:13;;;;;;;82.82;21.92;;;19.30;26.80;;;;;;5019259;28;20142;-64
2021/01/16 02:54:42;;;;;;;108.88;24.17;;;19.30;27.10;;;;;;5072407;27;20140;-64
2021/01/16 02:57:10;;;;;;;97.25;23.20;;;19.20;27.10;;;;;;5103972;28;20083;-64
2021/01/16 02:59:41;;;;;;;81.43;23.48;;;19.10;27.30;;;;;;5109423;28;20059;-64
2021/01/16 03:02:10;;;;;;;78.60;20.85;;;19.00;27.60;;;;;;5108754;28;20086;-65
2021/01/16 03:04:38;;;;;;;82.90;20.27;;;19.00;27.50;;;;;;5111074;28;20099;-64
2021/01/16 03:07:07;;;;;;;87.55;20.40;;;18.90;27.50;;;;;;5107839;28;20079;-65
2021/01/16 03:09:34;;;;;;;83.63;18.23;;;18.90;28.10;;;;;;5105170;27;20554;-66
2021/01/16 03:12:02;;;;;;;90.85;17.33;;;18.80;28.10;;;;;;5099437;28;20064;-65
2021/01/16 03:14:37;;;;;;;72.88;16.42;;;18.70;28.20;;;;;;5092748;28;20075;-66
2021/01/16 03:17:12;;;;;;;82.80;15.70;;;18.70;28.70;;;;;;5109262;27;20150;-66
2021/01/16 03:19:47;;;;;;;84.35;14.73;;;18.60;28.30;;;;;;5122245;27;20067;-67
2021/01/16 03:22:21;;;;;;;83.38;16.08;;;18.50;28.10;;;;;;5107748;28;20158;-65
2021/01/16 03:24:49;;;;;;;86.20;17.63;;;18.50;28.40;;;;;;5110066;28;20087;-66
2021/01/16 03:27:16;;;;;;;114.25;19.55;;;18.40;28.50;;;;;;5107021;28;20173;-66
2021/01/16 03:29:44;;;;;;;97.20;19.55;;;18.30;28.70;;;;;;5106221;28;20438;-65
2021/01/16 03:32:11;;;;;;;80.95;18.98;;;18.30;28.90;;;;;;5108422;27;20068;-65
2021/01/16 03:34:40;;;;;;;103.20;20.00;;;18.30;29.00;;;;;;5093076;28;20140;-64
2021/01/16 03:37:06;;;;;;;103.03;19.27;;;18.20;29.10;;;;;;5092241;28;20146;-63
2021/01/16 03:39:33;;;;;;;87.90;17.50;;;18.10;29.20;;;;;;5063270;28;20084;-62
2021/01/16 03:42:00;;;;;;;69.70;16.00;;;18.10;29.30;;;;;;5084081;28;20519;-64
2021/01/16 03:44:27;;;;;;;71.72;15.52;;;18.10;29.40;;;;;;5081587;28;20104;-64
2021/01/16 03:46:54;;;;;;;84.97;16.75;;;18.00;29.70;;;;;;5084603;28;20091;-65
2021/01/16 03:49:20;;;;;;;;;;;17.90;29.00;;;;;;5070368;28;20434;-65
2021/01/16 03:51:47;;;;;;;71.68;16.08;;;17.90;29.20;;;;;;5088809;28;19916;-62
2021/01/16 03:54:13;;;;;;;;;;;17.80;29.60;;;;;;5050101;28;20484;-62
2021/01/16 03:56:39;;;;;;;73.82;17.20;;;17.70;30.00;;;;;;5087082;28;19918;-63
2021/01/16 03:59:06;;;;;;;;;;;17.70;30.00;;;;;;5098553;28;20023;-64
2021/01/16 04:01:33;;;;;;;79.70;18.65;;;17.70;30.00;;;;;;5096743;28;20279;-64
2021/01/16 04:04:01;;;;;;;77.40;19.00;;;17.60;30.50;;;;;;5090006;28;20036;-63
2021/01/16 04:06:28;;;;;;;80.95;18.83;;;17.60;30.60;;;;;;5092876;28;20110;-64
2021/01/16 04:08:55;;;;;;;77.65;22.08;;;17.60;30.50;;;;;;5087178;28;20017;-64
2021/01/16 04:11:21;;;;;;;;;;;17.50;30.00;;;;;;5090460;28;20043;-63
2021/01/16 04:13:47;;;;;;;90.18;24.80;;;17.40;29.90;;;;;;5091176;28;19943;-63
2021/01/16 04:16:14;;;;;;;;;;;17.30;30.00;;;;;;5094824;28;20484;-64
2021/01/16 04:18:40;;;;;;;97.18;25.25;;;17.30;30.30;;;;;;5084358;28;19943;-63
2021/01/16 04:21:06;;;;;;;;;;;17.20;29.90;;;;;;5094028;28;20415;-62
2021/01/16 04:23:33;;;;;;;94.53;23.45;;;17.20;30.20;;;;;;5090894;28;19908;-65
2021/01/16 04:26:01;;;;;;;80.57;22.88;;;17.20;30.30;;;;;;5067712;28;20067;-64
2021/01/16 04:28:28;;;;;;;94.13;23.55;;;17.10;30.60;;;;;;5076613;28;20031;-64
2021/01/16 04:30:54;;;;;;;;;;;17.10;30.40;;;;;;5073292;28;20060;-64
2021/01/16 04:33:21;;;;;;;101.63;26.20;;;17.10;30.80;;;;;;5091786;28;19977;-63
2021/01/16 04:35:49;;;;;;;89.50;24.95;;;17.10;31.10;;;;;;5094190;28;20447;-64
2021/01/16 04:38:15;;;;;;;99.30;24.90;;;17.10;31.40;;;;;;5061234;28;20037;-63
2021/01/16 04:40:41;;;;;;;;;;;17.00;31.80;;;;;;5079168;28;20031;-63
2021/01/16 04:43:08;;;;;;;96.82;25.83;;;17.00;30.80;;;;;;5086507;28;19918;-63
2021/01/16 04:45:37;;;;;;;102.70;30.85;;;16.90;30.80;;;;;;5074617;28;20032;-63
2021/01/16 04:48:04;;;;;;;102.50;28.77;;;16.80;30.80;;;;;;5095204;28;20103;-62
2021/01/16 04:50:35;;;;;;;91.32;27.63;;;16.90;31.00;;;;;;5095018;28;20497;-65
2021/01/16 04:53:04;;;;;;;90.40;27.48;;;16.80;31.40;;;;;;5094196;28;20031;-63
2021/01/16 04:55:37;;;;;;;94.72;28.50;;;16.80;31.40;;;;;;5094675;28;20499;-62
2021/01/16 04:58:09;;;;;;;105.55;31.48;;;16.80;31.90;;;;;;5095812;28;20127;-63
2021/01/16 05:00:38;;;;;;;102.85;31.48;;;16.70;31.80;;;;;;5090959;28;20123;-63
2021/01/16 05:03:09;;;;;;;95.35;32.97;;;16.70;32.10;;;;;;5091923;28;20028;-62
2021/01/16 05:05:42;;;;;;;117.05;34.70;;;16.70;32.40;;;;;;5091125;28;20723;-63
2021/01/16 05:08:10;;;;;;;95.32;32.38;;;16.70;32.80;;;;;;5089569;28;20024;-62
2021/01/16 05:10:40;;;;;;;113.80;34.63;;;16.60;33.50;;;;;;5073928;28;20051;-63
2021/01/16 05:13:10;;;;;;;97.25;32.78;;;16.50;32.20;;;;;;5090018;28;20111;-64
2021/01/16 05:15:39;;;;;;;121.05;39.90;;;16.50;32.30;;;;;;5091180;28;20346;-63
2021/01/16 05:18:17;;;;;;;121.10;40.88;;;16.50;32.50;;;;;;5088450;28;20082;-63
2021/01/16 05:20:46;;;;;;;104.68;40.72;;;16.50;32.80;;;;;;5090439;28;20040;-63
2021/01/16 05:23:16;;;;;;;145.02;45.35;;;16.40;33.00;;;;;;5088901;28;20027;-64
2021/01/16 05:25:44;;;;;;;124.43;42.20;;;16.30;33.20;;;;;;5090481;28;20081;-64
2021/01/16 05:28:21;;;;;;;137.65;45.30;;;16.30;33.40;;;;;;5089249;28;20025;-63
2021/01/16 05:30:49;;;;;;;;;;;16.30;33.30;;;;;;5090326;28;20024;-63
2021/01/16 05:33:16;;;;;;;136.73;44.38;;;16.20;33.70;;;;;;5092917;28;20007;-63
2021/01/16 05:35:43;;;;;;;125.22;42.55;;;16.20;33.30;;;;;;5112807;28;20020;-63
2021/01/16 05:38:14;;;;;;;137.38;45.80;;;16.20;33.90;;;;;;5108813;28;20092;-62
2021/01/16 05:40:41;;;;;;;146.35;48.88;;;16.10;33.50;;;;;;5110695;28;20484;-62
2021/01/16 05:43:08;;;;;;;165.77;50.25;;;16.10;33.70;;;;;;5111400;28;20422;-62
2021/01/16 05:45:37;;;;;;;151.13;50.38;;;16.10;34.00;;;;;;5095415;28;20115;-67
2021/01/16 05:48:05;;;;;;;179.40;53.00;;;16.10;34.30;;;;;;5107786;28;20024;-63
2021/01/16 05:50:38;;;;;;;166.20;51.92;;;16.00;34.30;;;;;;5095328;28;20495;-62
2021/01/16 05:53:06;;;;;;;185.48;58.03;;;16.00;34.60;;;;;;5109788;28;20031;-64
2021/01/16 05:55:33;;;;;;;165.35;56.50;;;15.90;34.60;;;;;;5109664;28;20039;-63
2021/01/16 05:58:08;;;;;;;171.43;56.00;;;15.90;34.80;;;;;;5115353;27;20102;-64
2021/01/16 06:00:46;;;;;;;156.32;52.22;;;15.90;34.90;;;;;;5115351;27;20031;-62
2021/01/16 06:03:15;;;;;;;162.52;53.65;;;15.80;34.50;;;;;;5110932;28;20439;-65
2021/01/16 06:05:51;;;;;;;141.90;51.20;;;15.80;34.70;;;;;;5112614;27;20067;-63
2021/01/16 06:08:21;;;;;;;138.40;49.53;;;15.80;34.40;;;;;;5110528;28;20034;-64
2021/01/16 06:10:56;;;;;;;169.77;60.47;;;15.80;34.60;;;;;;5112162;27;20030;-64
2021/01/16 06:13:31;;;;;;;165.95;58.90;;;15.70;34.30;;;;;;5095528;28;20024;-64
2021/01/16 06:16:03;;;;;;;198.98;70.05;;;15.70;34.00;;;;;;5110167;27;20032;-64
2021/01/16 06:18:37;;;;;;;181.48;72.32;;;15.70;33.80;;;;;;5108829;28;20034;-64
2021/01/16 06:21:04;;;;;;;203.75;82.32;;;15.70;33.50;;;;;;5109947;28;20115;-64
2021/01/16 06:23:34;;;;;;;208.85;87.57;;;15.60;33.60;;;;;;5109715;27;20484;-65
2021/01/16 06:26:07;;;;;;;231.77;93.43;;;15.60;33.50;;;;;;5108850;27;20038;-62
2021/01/16 06:28:53;;;;;;;227.57;87.80;;;15.70;33.60;;;;;;5108288;28;20023;-63
2021/01/16 06:31:31;;;;;;;199.13;79.28;;;15.60;34.10;;;;;;5113468;27;20034;-63
2021/01/16 06:34:02;;;;;;;183.98;75.35;;;15.70;34.30;;;;;;5109495;28;20040;-64
2021/01/16 06:36:31;;;;;;;177.65;77.57;;;15.60;34.30;;;;;;5106600;28;20060;-65
2021/01/16 06:39:00;;;;;;;191.10;73.63;;;15.50;34.30;;;;;;5111701;27;20026;-64
2021/01/16 06:41:33;;;;;;;178.88;71.82;;;15.50;34.50;;;;;;5108523;28;20024;-59
2021/01/16 06:44:01;;;;;;;182.63;68.30;;;15.40;35.00;;;;;;5107545;28;20587;-64
2021/01/16 06:46:45;;;;;;;163.80;64.47;;;15.40;35.20;;;;;;5111305;27;20023;-63
2021/01/16 06:49:26;;;;;;;151.18;63.05;;;15.40;35.00;;;;;;5094363;27;20116;-62
2021/01/16 06:51:54;;;;;;;166.25;60.80;;;15.30;35.00;;;;;;5110010;27;20031;-63
2021/01/16 06:54:30;;;;;;;171.60;64.15;;;15.30;35.20;;;;;;5112120;27;20368;-64
2021/01/16 06:57:05;;;;;;;255.45;97.95;;;15.20;35.00;;;;;;5107416;28;20034;-63
2021/01/16 06:59:33;;;;;;;276.15;104.97;;;15.20;35.30;;;;;;5110255;27;20038;-64
2021/01/16 07:02:13;;;;;;;243.68;100.32;;;15.20;34.90;;;;;;5107901;27;20035;-64
2021/01/16 07:04:54;;;;;;;252.10;101.82;;;15.20;35.10;;;;;;5108759;28;20445;-62
2021/01/16 07:07:32;;;;;;;236.45;95.97;;;15.20;34.80;;;;;;5111821;27;20020;-63
2021/01/16 07:10:05;;;;;;;244.90;97.80;;;15.10;35.10;;;;;;5110909;27;20031;-61
2021/01/16 07:12:32;;;;;;;257.45;97.47;;;15.10;35.60;;;;;;5108831;28;20027;-63
2021/01/16 07:14:59;;;;;;;261.70;98.78;;;15.00;35.30;;;;;;5107045;28;20026;-62
2021/01/16 07:17:27;;;;;;;248.05;97.28;;;15.00;35.40;;;;;;5106983;28;20030;-63
2021/01/16 07:19:58;;;;;;;245.27;98.60;;;15.00;35.60;;;;;;5108872;27;20129;-63
2021/01/16 07:22:33;;;;;;;237.77;99.38;;;15.00;35.70;;;;;;5097269;28;20028;-62
2021/01/16 07:25:00;;;;;;;221.63;88.43;;;15.00;35.80;;;;;;5111191;27;20158;-62
2021/01/16 07:27:28;;;;;;;223.70;86.50;;;15.00;36.40;;;;;;5107766;28;20039;-61
2021/01/16 07:29:59;;;;;;;213.50;82.13;;;14.90;36.20;;;;;;5109416;27;20048;-62
2021/01/16 07:32:50;;;;;;;221.52;88.72;;;14.90;36.40;;;;;;5091463;28;20432;-60
2021/01/16 07:35:22;;;;;;;241.10;98.47;;;14.90;36.30;;;;;;5107801;28;20051;-62
2021/01/16 07:37:52;;;;;;;271.38;105.38;;;14.80;36.40;;;;;;5108497;28;20065;-62
2021/01/16 07:40:22;;;;;;;239.95;102.75;;;14.80;37.10;;;;;;5094058;28;20027;-62
2021/01/16 07:42:59;;;;;;;259.08;108.78;;;14.80;37.30;;;;;;5108809;28;20023;-62
2021/01/16 07:45:30;;;;;;;269.15;104.95;;;14.70;37.40;;;;;;5094710;28;20062;-61
2021/01/16 07:48:02;;;;;;;243.93;100.55;;;14.70;37.70;;;;;;5106936;28;20041;-61
2021/01/16 07:50:31;;;;;;;247.52;104.88;;;14.70;37.90;;;;;;5107706;28;20111;-61
2021/01/16 07:53:09;;;;;;;258.73;110.53;;;14.70;37.80;;;;;;5106847;28;20126;-62
2021/01/16 07:55:35;;;;;;;258.35;110.60;;;14.60;37.90;;;;;;5107879;28;20483;-62
2021/01/16 07:58:17;;;;;;;267.25;114.60;;;14.60;37.90;;;;;;5110324;28;20566;-61
2021/01/16 08:01:16;;;;;;;267.63;115.32;;;14.50;38.20;;;;;;5107801;28;20042;-62
2021/01/16 08:03:43;;;;;;;266.33;105.43;;;14.50;38.70;;;;;;5067602;28;20137;-62
2021/01/16 08:06:10;;;;;;;216.75;93.43;;;14.40;38.00;;;;;;5107682;28;20113;-60
2021/01/16 08:09:03;;;;;;;216.38;85.82;;;14.50;38.10;;;;;;5107827;28;20105;-61
2021/01/16 08:11:34;;;;;;;222.43;83.05;;;14.50;38.10;;;;;;5107046;28;20394;-62
2021/01/16 08:14:06;;;;;;;198.05;79.10;;;14.40;38.60;;;;;;5108478;28;20035;-62
2021/01/16 08:16:33;;;;;;;214.98;68.40;;;14.40;38.50;;;;;;5108470;28;20075;-61
2021/01/16 08:19:12;;;;;;;207.45;72.03;;;14.40;39.00;;;;;;5109597;28;20512;-62
2021/01/16 08:21:52;;;;;;;192.07;67.57;;;14.40;38.80;;;;;;5111133;28;20042;-62
2021/01/16 08:24:20;;;;;;;181.32;69.07;;;14.30;38.70;;;;;;5108766;28;20024;-61
2021/01/16 08:27:00;;;;;;;165.65;66.22;;;14.20;39.00;;;;;;5108453;28;20092;-61
2021/01/16 08:29:30;;;;;;;159.80;62.42;;;14.20;38.70;;;;;;5093559;28;20379;-62
2021/01/16 08:32:09;;;;;;;176.40;64.55;;;14.20;39.20;;;;;;5107890;28;20074;-62
2021/01/16 08:34:55;;;;;;;158.75;63.60;;;14.20;39.00;;;;;;5108265;28;20126;-63
2021/01/16 08:37:36;;;;;;;160.95;64.10;;;14.10;38.80;;;;;;5112161;27;20055;-63
2021/01/16 08:40:09;;;;;;;183.32;67.18;;;14.10;38.90;;;;;;5112258;27;20364;-62
2021/01/16 08:42:50;;;;;;;183.65;67.88;;;14.20;39.10;;;;;;5113512;27;20034;-62
2021/01/16 08:45:17;;;;;;;179.02;67.47;;;14.20;39.30;;;;;;5111329;28;20059;-62
2021/01/16 08:47:55;;;;;;;153.68;60.20;;;14.10;39.30;;;;;;5112149;27;20090;-60
2021/01/16 08:50:27;;;;;;;164.38;55.80;;;14.00;39.00;;;;;;5098026;27;20030;-61
2021/01/16 08:52:54;;;;;;;147.55;55.00;;;14.00;39.00;;;;;;5109419;27;20031;-62
2021/01/16 08:55:25;;;;;;;;;;;14.00;38.90;;;;;;5098003;27;20061;-62
2021/01/16 08:58:06;;;;;;;141.27;57.03;;;14.00;38.90;;;;;;5111234;27;19930;-61
2021/01/16 09:00:33;;;;;;;164.48;60.63;;;13.90;39.60;;;;;;5110930;28;20023;-62
2021/01/16 09:03:07;;;;;;;178.25;63.50;;;13.90;39.80;;;;;;5115263;27;20047;-63
2021/01/16 09:05:35;;;;;;;153.75;60.92;;;13.90;40.10;;;;;;5112279;27;20093;-63
2021/01/16 09:08:03;;;;;;;155.43;61.05;;;13.90;39.90;;;;;;5110926;28;20061;-62
2021/01/16 09:10:33;;;;;;;184.35;63.88;;;13.90;40.20;;;;;;5096069;28;20038;-61
2021/01/16 09:13:00;;;;;;;169.98;61.13;;;13.80;39.90;;;;;;5112510;27;20054;-62
2021/01/16 09:15:50;;;;;;;154.60;58.72;;;13.70;39.50;;;;;;5110730;28;20041;-61
2021/01/16 09:18:16;;;;;;;156.43;59.08;;;13.70;39.90;;;;;;5108411;28;20084;-62
2021/01/16 09:20:44;;;;;;;164.23;57.40;;;13.70;39.80;;;;;;5111853;27;20039;-62
2021/01/16 09:23:19;;;;;;;159.75;55.58;;;13.70;39.90;;;;;;5111788;27;20040;-62
2021/01/16 09:25:46;;;;;;;167.23;56.63;;;13.60;40.00;;;;;;5108779;28;20056;-62
2021/01/16 09:28:12;;;;;;;136.95;53.58;;;13.50;40.00;;;;;;5110030;27;20040;-62
2021/01/16 09:30:38;;;;;;;;;;;13.50;40.20;;;;;;5114178;27;20046;-62
2021/01/16 09:33:22;;;;;;;151.60;51.45;;;13.50;40.20;;;;;;5116047;27;20279;-62
2021/01/16 09:35:49;;;;;;;143.35;52.45;;;13.40;39.60;;;;;;5110707;28;20023;-62
2021/01/16 09:38:22;;;;;;;176.13;55.70;;;13.50;39.70;;;;;;5109534;28;20069;-62
2021/01/16 09:40:50;;;;;;;160.52;54.70;;;13.50;39.90;;;;;;5092085;28;20042;-61
2021/01/16 09:43:17;;;;;;;176.73;54.75;;;13.50;39.50;;;;;;5109990;28;20038;-62
2021/01/16 09:45:58;;;;;;;150.15;56.63;;;13.50;39.70;;;;;;5109264;27;20144;-61
2021/01/16 09:48:46;;;;;;;185.27;57.33;;;13.50;39.50;;;;;;5110097;28;20036;-62
2021/01/16 09:51:14;;;;;;;171.77;53.33;;;13.40;39.60;;;;;;5111404;27;20039;-61
2021/01/16 09:53:42;;;;;;;151.55;54.80;;;13.40;40.20;;;;;;5112427;27;20049;-62
2021/01/16 09:56:09;;;;;;;157.60;57.08;;;13.30;39.90;;;;;;5109800;27;20047;-62
2021/01/16 09:58:37;;;;;;;177.40;60.58;;;13.30;39.70;;;;;;5110894;27;20111;-62
2021/01/16 10:01:18;;;;;;;167.95;58.10;;;13.30;39.80;;;;;;5110919;27;20040;-62
2021/01/16 10:03:46;;;;;;;188.13;59.55;;;13.30;39.60;;;;;;5108956;27;20098;-62
2021/01/16 10:06:19;;;;;;;200.65;60.50;;;13.30;39.90;;;;;;5109904;27;20052;-62
2021/01/16 10:08:54;;;;;;;185.15;61.28;;;13.30;40.00;;;;;;5109720;27;20036;-62
2021/01/16 10:11:42;;;;;;;203.40;63.72;;;13.30;40.10;;;;;;5108098;28;20081;-63
2021/01/16 10:14:16;;;;;;;194.10;60.15;;;13.20;40.10;;;;;;5108734;28;20040;-62
2021/01/16 10:16:47;;;;;;;220.00;74.40;;;13.20;40.20;;;;;;5112162;27;20034;-63
2021/01/16 10:19:15;;;;;;;211.40;73.20;;;13.10;39.90;;;;;;5110280;27;20041;-63
2021/01/16 10:22:02;;;;;;;233.73;76.07;;;13.00;40.30;;;;;;5092626;28;20439;-62
2021/01/16 10:24:29;;;;;;;222.55;72.80;;;13.10;40.20;;;;;;5093438;27;20064;-62
2021/01/16 10:26:56;;;;;;;213.52;70.88;;;13.10;40.20;;;;;;5107687;27;20395;-62
2021/01/16 10:29:36;;;;;;;213.80;70.80;;;13.00;40.40;;;;;;5109072;28;20064;-61
2021/01/16 10:32:23;;;;;;;206.93;69.35;;;13.10;40.50;;;;;;5110919;27;20035;-62
2021/01/16 10:34:58;;;;;;;225.90;70.15;;;13.10;40.10;;;;;;5096533;28;20563;-62
2021/01/16 10:37:29;;;;;;;204.10;64.75;;;13.10;40.00;;;;;;5088880;28;20032;-63
2021/01/16 10:40:02;;;;;;;208.93;64.68;;;13.10;40.50;;;;;;5071304;28;20094;-63
2021/01/16 10:42:44;;;;;;;200.40;65.13;;;13.00;40.60;;;;;;5090069;28;20439;-63
2021/01/16 10:45:12;;;;;;;206.38;63.42;;;12.90;41.40;;;;;;5090381;28;20070;-62
2021/01/16 10:47:42;;;;;;;182.10;60.60;;;12.90;41.30;;;;;;5090161;28;20043;-63
2021/01/16 10:50:30;;;;;;;182.77;61.40;;;13.00;40.80;;;;;;5091314;28;20041;-62
2021/01/16 10:53:05;;;;;;;197.02;59.25;;;12.90;40.90;;;;;;5088409;28;20401;-62
2021/01/16 10:55:54;;;;;;;181.88;57.85;;;12.90;40.50;;;;;;5079213;28;20058;-63
2021/01/16 10:58:23;;;;;;;181.98;58.40;;;12.90;40.60;;;;;;5088007;28;20052;-62
2021/01/16 11:01:00;;;;;;;156.48;53.67;;;12.90;40.20;;;;;;5090176;28;20049;-63
2021/01/16 11:03:33;;;;;;;190.70;59.30;;;12.80;40.60;;;;;;5087952;28;20026;-62
2021/01/16 11:06:13;;;;;;;177.82;62.10;;;12.70;40.30;;;;;;5087508;28;20087;-62
2021/01/16 11:08:40;;;;;;;191.85;63.92;;;12.70;40.50;;;;;;5054881;28;20067;-62
2021/01/16 11:11:27;;;;;;;189.93;64.38;;;12.70;40.80;;;;;;5072281;28;20060;-63
2021/01/16 11:13:54;;;;;;;191.47;61.90;;;12.70;40.60;;;;;;5087955;28;20482;-62
2021/01/16 11:16:23;;;;;;;169.68;59.97;;;12.60;41.10;;;;;;5089446;28;20047;-63
2021/01/16 11:18:50;;;;;;;170.95;57.42;;;12.70;40.80;;;;;;5069491;28;20033;-62
2021/01/16 11:21:35;;;;;;;169.10;58.78;;;12.70;41.00;;;;;;5088019;28;20033;-62
2021/01/16 11:24:31;;;;;;;170.90;58.10;;;12.70;41.40;;;;;;5087864;28;20040;-63
2021/01/16 11:27:02;;;;;;;172.35;54.85;;;12.70;41.30;;;;;;5088058;28;20122;-62
2021/01/16 11:29:44;;;;;;;183.98;57.90;;;12.60;41.80;;;;;;5086700;28;20039;-63
2021/01/16 11:32:40;;;;;;;171.00;57.65;;;12.60;41.80;;;;;;5088093;28;20618;-62
2021/01/16 11:35:14;;;;;;;185.60;59.75;;;12.50;41.90;;;;;;5093099;28;20779;-61
2021/01/16 11:37:51;;;;;;;175.73;60.45;;;12.50;42.30;;;;;;5104261;28;20043;-63
2021/01/16 11:40:23;;;;;;;165.50;60.60;;;12.50;42.30;;;;;;5084596;28;20090;-62
2021/01/16 11:42:57;;;;;;;186.23;60.47;;;12.50;42.20;;;;;;5107961;28;20183;-63
2021/01/16 11:45:25;;;;;;;167.52;60.08;;;12.60;42.40;;;;;;5096744;28;20118;-60
2021/01/16 11:47:59;;;;;;;183.63;58.28;;;12.40;41.90;;;;;;5102968;28;20050;-62
2021/01/16 11:50:27;;;;;;;186.48;58.85;;;12.40;42.30;;;;;;5104988;28;20062;-63
2021/01/16 11:52:54;;;;;;;172.50;57.78;;;12.40;42.50;;;;;;5101422;28;20532;-62
2021/01/16 11:55:20;;;;;;;;;;;12.40;42.70;;;;;;5102013;28;20054;-62
2021/01/16 11:57:48;;;;;;;162.77;53.42;;;12.40;42.80;;;;;;5106778;28;19923;-62
2021/01/16 12:00:19;;;;;;;146.70;52.67;;;12.30;42.90;;;;;;5094482;28;20036;-62
2021/01/16 12:02:50;;;;;;;158.80;54.92;;;12.20;42.80;;;;;;5102958;28;20397;-62
2021/01/16 12:05:23;;;;;;;167.65;54.13;;;12.30;42.90;;;;;;5105955;28;20567;-63
2021/01/16 12:07:55;;;;;;;165.77;53.45;;;12.30;42.80;;;;;;5103329;28;20043;-62
2021/01/16 12:10:26;;;;;;;135.05;50.67;;;12.30;42.90;;;;;;5101058;28;20512;-63
2021/01/16 12:12:54;;;;;;;134.80;48.92;;;12.20;43.30;;;;;;5111058;28;20649;-63
2021/01/16 12:15:29;;;;;;;136.82;50.45;;;12.10;42.80;;;;;;5109908;27;20053;-63
2021/01/16 12:17:57;;;;;;;145.23;50.05;;;12.10;43.30;;;;;;5104916;28;20471;-63
2021/01/16 12:20:25;;;;;;;148.27;48.45;;;12.10;42.70;;;;;;5106616;28;20038;-63
2021/01/16 12:22:57;;;;;;;144.27;48.05;;;12.20;42.60;;;;;;5105502;28;20043;-63
2021/01/16 12:25:30;;;;;;;155.02;49.50;;;12.10;42.80;;;;;;5108308;27;20192;-62
2021/01/16 12:27:57;;;;;;;144.00;46.47;;;12.10;42.70;;;;;;5105783;28;20121;-62
2021/01/16 12:30:32;;;;;;;142.88;47.33;;;12.10;42.70;;;;;;5109008;27;20054;-62
2021/01/16 12:32:59;;;;;;;141.15;48.63;;;12.00;42.90;;;;;;5110239;28;20036;-63
2021/01/16 12:35:25;;;;;;;;;;;11.90;43.00;;;;;;5109113;28;20059;-62
2021/01/16 12:37:53;;;;;;;124.10;45.92;;;12.00;42.80;;;;;;5109291;28;19920;-61
2021/01/16 12:40:22;;;;;;;142.48;47.08;;;11.90;43.00;;;;;;5109278;28;20495;-62
2021/01/16 12:42:49;;;;;;;136.18;45.92;;;12.00;42.60;;;;;;5107396;28;20034;-62
2021/01/16 12:45:19;;;;;;;150.27;46.83;;;12.00;42.80;;;;;;5104714;28;20076;-62
2021/01/16 12:47:49;;;;;;;125.50;45.90;;;11.90;42.70;;;;;;5106143;28;20082;-63
2021/01/16 12:50:16;;;;;;;124.28;43.92;;;12.00;42.70;;;;;;5108897;28;20048;-62